CheckWX is a tool to help pilots better visualize weather data.  It is not intended as a substitute for an official pre-flight weather briefing.

08:49:40 UTC

EPWR METAR
Copernicus Wrocław Airport
Wrocław, Poland
Current

20 mins ago

EPWR 180830Z 14005KT CAVOK 15/12 Q1014
Observed
Oct-18 @ 08:30 UTC
Wind
  • 140° at 5 KTS
Visibility
10,000+ meters
Flight Rules
VFR
Cloud Levels
  • Clear skies
Temperature
15°C / 59°F
Dewpoint
12°C / 54°F
Humidity
82%
Altimeter
29.94" Hg
Pressure
1013.92 hPa
Previous

50 mins ago

EPWR 180800Z 14004KT 110V170 CAVOK 14/11 Q1014
Observed
Oct-18 @ 08:00 UTC
Wind
  • 140° at 4 KTS
Visibility
10,000+ meters
Flight Rules
VFR
Cloud Levels
  • Clear skies
Temperature
14°C / 57°F
Dewpoint
11°C / 52°F
Humidity
82%
Altimeter
29.94" Hg
Pressure
1013.92 hPa
Previous

1 hour ago

EPWR 180730Z 14005KT CAVOK 13/10 Q1014
Observed
Oct-18 @ 07:30 UTC
Wind
  • 140° at 5 KTS
Visibility
10,000+ meters
Flight Rules
VFR
Cloud Levels
  • Clear skies
Temperature
13°C / 55°F
Dewpoint
10°C / 50°F
Humidity
82%
Altimeter
29.94" Hg
Pressure
1013.92 hPa